TimeEDT,TemperatureF,Dew PointF,Humidity,Sea Level PressureIn,VisibilityMPH,Wind Direction,Wind SpeedMPH,Gust SpeedMPH,PrecipitationIn,Events,Conditions,WindDirDegrees,DateUTC
12:53 AM,63.0,53.1,70,29.62,10.0,South,5.8,-,0.00,Rain,Light Rain,170,2013-05-15 04:53:00
1:53 AM,61.0,53.1,75,29.59,10.0,ESE,5.8,-,N/A,,Clear,120,2013-05-15 05:53:00
2:53 AM,70.0,57.0,63,29.56,10.0,SSW,8.1,-,N/A,,Clear,200,2013-05-15 06:53:00
3:53 AM,72.0,57.0,59,29.56,10.0,SW,11.5,-,N/A,,Clear,220,2013-05-15 07:53:00
4:53 AM,73.9,54.0,50,29.57,10.0,WSW,18.4,24.2,N/A,,Clear,240,2013-05-15 08:53:00
5:53 AM,70.0,53.1,55,29.60,10.0,WSW,18.4,-,N/A,,Partly Cloudy,250,2013-05-15 09:53:00
6:53 AM,66.9,51.1,57,29.63,10.0,West,11.5,-,N/A,,Scattered Clouds,260,2013-05-15 10:53:00
7:53 AM,66.9,51.1,57,29.67,10.0,West,6.9,-,N/A,,Scattered Clouds,260,2013-05-15 11:53:00
8:53 AM,68.0,48.9,50,29.70,10.0,West,8.1,-,N/A,,Partly Cloudy,260,2013-05-15 12:53:00
9:53 AM,71.1,48.0,44,29.73,10.0,WNW,8.1,-,N/A,,Partly Cloudy,290,2013-05-15 13:53:00
10:53 AM,73.0,48.9,42,29.74,10.0,West,15.0,18.4,N/A,,Scattered Clouds,280,2013-05-15 14:53:00
11:53 AM,75.0,48.9,40,29.77,10.0,WNW,18.4,23.0,N/A,,Mostly Cloudy,300,2013-05-15 15:53:00
12:53 PM,75.9,48.9,38,29.78,10.0,WNW,15.0,23.0,N/A,,Scattered Clouds,300,2013-05-15 16:53:00
1:53 PM,75.9,50.0,40,29.78,10.0,WNW,11.5,-,N/A,,Partly Cloudy,300,2013-05-15 17:53:00
2:53 PM,75.9,48.9,38,29.78,10.0,West,9.2,-,N/A,,Partly Cloudy,280,2013-05-15 18:53:00
3:53 PM,78.1,46.9,33,29.79,10.0,West,10.4,-,N/A,,Partly Cloudy,270,2013-05-15 19:53:00
4:53 PM,75.9,46.9,36,29.79,10.0,WSW,15.0,-,N/A,,Scattered Clouds,240,2013-05-15 20:53:00
5:53 PM,75.9,44.1,32,29.78,10.0,WNW,11.5,-,N/A,,Mostly Cloudy,290,2013-05-15 21:53:00
6:53 PM,72.0,41.0,33,29.80,10.0,West,12.7,-,N/A,,Mostly Cloudy,270,2013-05-15 22:53:00
7:53 PM,71.1,39.9,32,29.79,10.0,WNW,9.2,-,N/A,,Mostly Cloudy,300,2013-05-15 23:53:00
8:53 PM,68.0,39.9,36,29.81,10.0,WNW,4.6,-,N/A,,Mostly Cloudy,300,2013-05-16 00:53:00
9:53 PM,64.0,43.0,46,29.82,10.0,Calm,Calm,-,N/A,,Scattered Clouds,0,2013-05-16 01:53:00
10:53 PM,63.0,42.1,46,29.83,10.0,Calm,Calm,-,N/A,,Clear,0,2013-05-16 02:53:00
11:53 PM,60.1,43.0,53,29.83,10.0,WSW,3.5,-,N/A,,Clear,240,2013-05-16 03:53:00